Weather observations for the past three days for
Waco, Waco Regional Airport
Metric (Imperial)
Date Time (cdt) Wind (kph) Vis. (km) Weather Sky Cond. Temperature (ºC) Relative Humidity Wind Chill (°C) Heat Index (°C) Pressure Precipitation (cm)
Air Dwpt 6 hour altimeter (cm) sea level (mb) 1 hr 3 hr 6 hr
Max. Min.
31 14:51 S 24 G 37 16.09 A Few Clouds FEW080 37.8 17.8 31% 39 76.15 1014.3
31 13:51 SE 15 16.09 Fair CLR 36.7 18.3 34% 38 76.2 1014.9
31 12:51 S 20 16.09 Fair CLR 36.1 18.9 36.1 25 36% 38 76.25 1015.7
31 11:51 S 11 16.09 Fair CLR 33.9 21.1 47% 37 76.3 1016.5
31 10:51 S 11 16.09 Fair CLR 31.7 21.7 55% 35 76.33 1016.5
31 09:51 Vrbl 11 16.09 Fair CLR 30 22.8 65% 34 76.3 1016.3
31 08:51 SW 11 16.09 Fair CLR 27.2 23.3 79% 30 76.28 1016.1
31 07:51 S 13 16.09 Fair CLR 25.6 23.3 87% 27 76.23 1015.4
31 06:51 S 15 16.09 Fair CLR 25 22.8 29.4 25 88% 26 76.2 1014.8
31 05:51 S 15 16.09 Fair CLR 25.6 22.2 82% 27 76.15 1014.3
31 04:51 S 17 16.09 Fair CLR 26.7 22.2 76% 29 76.15 1014.2
31 03:51 S 19 16.09 Fair CLR 27.2 21.7 72% 29 76.12 1014.0
31 02:51 S 15 16.09 Fair CLR 27.8 21.7 69% 30 76.12 1014.1
31 01:51 S 19 16.09 Fair CLR 28.9 21.1 63% 31 76.15 1014.2
31 00:51 S 22 16.09 Fair CLR 29.4 20 36.1 29.4 57% 31 76.12 1014.0
30 23:51 S 24 16.09 Fair CLR 30.6 20.6 55% 33 76.1 1013.7
30 22:51 SE 17 16.09 Fair CLR 31.7 18.3 45% 33 76.07 1013.3
30 21:51 SE 15 16.09 Fair CLR 31.1 17.2 43% 32 76.05 1012.8
30 20:51 SE 13 16.09 Fair CLR 31.7 17.2 42% 32 75.97 1012.1
30 19:51 S 17 16.09 Fair CLR 33.9 17.2 37% 35 75.95 1011.7
30 18:51 SE 19 16.09 Fair CLR 36.1 16.1 38.3 35.6 30% 36 75.95 1011.6
30 17:51 S 15 16.09 A Few Clouds FEW090 37.2 15.6 28% 37 75.97 1011.8
30 16:51 S 22 16.09 A Few Clouds FEW085 37.8 16.7 29% 39 75.97 1012.0
30 15:51 S 19 G 33 16.09 A Few Clouds FEW080 37.8 17.2 30% 39 76.02 1012.7
30 14:51 S 15 16.09 Fair CLR 37.8 16.1 28% 38 76.1 1013.5
30 13:51 S 19 16.09 Fair CLR 37.2 17.2 31% 38 76.17 1014.5
30 12:51 S 17 16.09 Fair CLR 35 18.3 35.6 25 37% 36 76.23 1015.4
30 11:51 S 19 16.09 Fair CLR 34.4 19.4 41% 36 76.3 1016.3
30 10:51 S 19 16.09 Fair CLR 32.2 20.6 50% 35 76.33 1016.5
30 09:51 S 15 16.09 Fair CLR 30 21.7 61% 33 76.3 1016.4
30 08:51 S 17 16.09 Fair CLR 27.8 21.7 69% 30 76.3 1016.3
30 07:51 S 13 16.09 Fair CLR 26.1 21.7 77% 28 76.25 1015.8
30 06:51 S 13 16.09 Fair CLR 25.6 21.7 29.4 25.6 79% 27 76.2 1015.0
30 05:51 S 13 16.09 Fair CLR 26.1 21.7 77% 28 76.17 1014.5
30 04:51 S 9 16.09 Fair CLR 26.1 21.7 77% 28 76.15 1014.4
30 03:51 S 15 16.09 NULL NULL 27.2 22.2 74% 30 76.15 1014.3
30 02:51 S 13 16.09 Fair CLR 27.8 22.2 72% 30 76.15 1014.3
30 01:51 S 15 16.09 Fair CLR 28.3 21.7 67% 31 76.15 1014.3
30 00:51 S 17 16.09 Fair CLR 29.4 20.6 36.7 29.4 59% 32 76.15 1014.2
29 23:51 S 19 16.09 Fair CLR 30.6 20 53% 33 76.15 1014.1
29 22:51 S 15 16.09 Fair CLR 31.1 20.6 54% 34 76.15 1014.2
29 21:51 S 19 16.09 Fair CLR 32.8 19.4 45% 35 76.12 1013.9
29 20:51 S 13 16.09 Fair CLR 33.3 18.9 43% 35 76.05 1013.1
29 19:51 S 13 16.09 Fair CLR 34.4 18.3 38% 36 76.02 1012.7
29 18:51 S 11 16.09 Fair CLR 36.7 16.7 38.9 35 31% 37 76.02 1012.7
29 17:51 SE 13 16.09 Fair CLR 37.2 17.2 31% 38 76.02 1012.7
29 16:51 S 13 16.09 Fair CLR 38.3 17.2 29% 40 76.07 1013.2
29 15:51 S 19 16.09 Fair CLR 37.8 17.8 31% 39 76.12 1014.0
29 14:51 S 17 16.09 Fair CLR 38.3 18.9 32% 41 76.2 1014.9
29 13:51 S 15 16.09 Fair CLR 36.7 18.9 35% 39 76.28 1016.0
29 12:51 S 7 16.09 Fair CLR 35 20.6 35 22.2 43% 38 76.33 1016.5
29 11:51 S 13 16.09 Fair CLR 33.3 22.2 52% 38 76.38 1017.2
29 10:51 S 9 16.09 Fair CLR 31.7 21.7 55% 35 76.38 1017.3
29 09:51 Calm 16.09 Fair CLR 28.9 21.1 63% 31 76.38 1017.4
29 08:51 S 9 16.09 Fair CLR 26.7 21.7 74% 29 76.38 1017.6
29 07:51 SE 11 16.09 Fair CLR 23.3 20.6 85% 76.35 1017.2
29 06:51 Calm 16.09 Fair CLR 22.2 20 26.7 22.2 87% 76.33 1016.6
29 05:51 SE 6 16.09 Fair CLR 23.3 20.6 85% 76.3 1016.4
29 04:51 Calm 16.09 Fair CLR 22.8 20 84% 76.3 1016.4
29 03:51 SW 7 16.09 Fair CLR 23.9 20.6 82% 24 76.3 1016.2
29 02:51 S 9 16.09 Fair CLR 24.4 20.6 79% 25 76.28 1016.1
29 01:51 S 15 16.09 Fair CLR 25.6 20.6 74% 27 76.28 1016.1
29 00:51 S 13 16.09 Fair CLR 25.6 20 37.2 25 71% 27 76.28 1015.9
28 23:51 S 7 16.09 Fair CLR 26.1 20 69% 27 76.25 1015.8
28 22:51 SW 17 16.09 Fair CLR 27.8 20.6 65% 30 76.25 1015.6
28 21:51 S 20 16.09 Fair CLR 28.3 20.6 63% 30 76.2 1015.0
28 20:51 S 31 G 44 16.09 Fair CLR 32.2 19.4 47% 34 76.12 1013.9
28 19:51 SE 22 16.09 Light Rain CLR 33.9 19.4 42% 36 76.07 1013.4
28 18:51 SE 17 16.09 A Few Clouds FEW090 37.2 16.1 39.4 35.6 29% 38 76.02 1012.6
28 17:51 E 9 16.09 Fair CLR 38.3 16.1 27% 39 76.02 1012.6
28 16:51 E 19 G 30 16.09 Partly Cloudy SCT085 38.9 16.7 27% 40 76.02 1012.7
28 15:51 Vrbl 6 16.09 Partly Cloudy SCT085 37.8 17.2 30% 39 76.1 1013.7
Date Time (cdt) Wind (kph) Vis. (km) Weather Sky Cond. Air Dwpt Max. Min. Relative Humidity Wind Chill (°C) Heat Index (°C) altimeter (cm) sea level (mb) 1 hr 3 hr 6 hr
6 hour
Temperature (ºC) Pressure Precipitation (cm)